Michigan, Nebraska
Current Conditions -  °F | °C
As of 4:53 AM on Friday 19 Dec 2014 (Local Time) from KBBW Reporting Station
Moderate Fog Moderate Fog  
Wind Chill: 16°   Ceiling: 200
Heat Index: 25°   Visibility: 0.5mi
Dew Point: 24°   Wind: 9mph
Humidity: 96%   Direction: 220°SW
Pressure: 30.09"   Gusts: NA
Location:  41.579°N, 98.9733°W
Report Text: KBBW 191053Z AUTO 22008KT 1/2SM FZFG OVC002 M04/M04 A3009 RMK AO2 SLP216 I1000 T10391044
Loading
Personal Weather Stations






























Interactive Weather Map New forecast layout! Learn more

10-Day Weather Forecast

Advertisements
Track Severe Weather on mobile